createdAt,value
2018-01-17T08:06:43.288Z,2.91
2018-01-17T08:07:52.203Z,2.91
2018-01-17T08:09:01.381Z,2.91
2018-01-17T08:10:09.903Z,2.8
2018-01-17T08:11:18.690Z,2.81
2018-01-17T08:12:27.748Z,2.81
2018-01-17T08:13:36.543Z,2.76
2018-01-17T08:14:45.344Z,2.78
2018-01-17T08:15:54.132Z,2.76
2018-01-17T08:17:02.653Z,2.73
2018-01-17T08:18:11.442Z,2.7
2018-01-17T08:19:20.231Z,2.76
2018-01-17T08:20:29.020Z,2.9
2018-01-17T08:21:37.545Z,2.88
2018-01-17T08:22:46.070Z,2.85
2018-01-17T08:23:55.167Z,2.98
2018-01-17T08:25:03.957Z,3.01
2018-01-17T08:26:13.088Z,2.96
2018-01-17T08:27:22.211Z,3.06
2018-01-17T08:28:31.539Z,3.06
2018-01-17T08:29:40.065Z,3.03
2018-01-17T08:30:48.852Z,3.08
2018-01-17T08:31:57.381Z,3.01
2018-01-17T08:33:05.903Z,3.03
2018-01-17T08:34:14.954Z,3.05
2018-01-17T08:35:23.747Z,3.11
2018-01-17T08:36:32.556Z,3.19
2018-01-17T08:37:41.088Z,3.17
2018-01-17T08:38:50.148Z,3.13
2018-01-17T08:39:58.937Z,3.11
2018-01-17T08:41:07.751Z,3.16
2018-01-17T08:42:16.511Z,3.19
2018-01-17T08:43:25.565Z,3.06
2018-01-17T08:44:34.366Z,3.14
2018-01-17T08:45:43.158Z,3.13
2018-01-17T08:46:51.996Z,3.02
2018-01-17T08:48:00.776Z,3.11
2018-01-17T08:49:09.302Z,3.05
2018-01-17T08:50:17.824Z,3.13
2018-01-17T08:51:26.621Z,3.09
2018-01-17T08:52:35.145Z,3.11
2018-01-17T08:53:43.936Z,3.26
2018-01-17T08:54:52.990Z,3.19
2018-01-17T08:56:02.039Z,3.27
2018-01-17T08:57:11.097Z,3.26
2018-01-17T08:58:19.887Z,3.27
2018-01-17T08:59:28.938Z,3.26
2018-01-17T09:00:37.465Z,3.21
2018-01-17T09:01:45.993Z,3.24
2018-01-17T09:02:54.785Z,3.3
2018-01-17T09:04:04.100Z,3.21
2018-01-17T09:05:12.656Z,3.21
2018-01-17T09:06:21.966Z,3.3
2018-01-17T09:07:30.483Z,3.19
2018-01-17T09:08:39.013Z,3.23
2018-01-17T09:09:47.806Z,3.23
2018-01-17T09:10:56.588Z,3.23
2018-01-17T09:12:05.375Z,3.24
2018-01-17T09:13:14.163Z,3.23
2018-01-17T09:14:22.688Z,3.21
2018-01-17T09:15:31.472Z,3.24
2018-01-17T09:16:40.256Z,3.3
2018-01-17T09:17:48.790Z,3.32
2018-01-17T09:18:57.576Z,3.35
2018-01-17T09:20:06.377Z,3.42
2018-01-17T09:21:15.169Z,3.48
2018-01-17T09:22:24.820Z,3.48
2018-01-17T09:23:33.608Z,3.48
2018-01-17T09:24:42.663Z,3.54
2018-01-17T09:25:51.713Z,3.57
2018-01-17T09:27:00.503Z,3.61
2018-01-17T09:28:09.568Z,3.53
2018-01-17T09:29:18.371Z,3.57
2018-01-17T09:30:27.311Z,3.57
2018-01-17T09:31:36.050Z,3.63
2018-01-17T09:32:44.836Z,3.58
2018-01-17T09:33:53.359Z,3.61
2018-01-17T09:35:02.259Z,3.56
2018-01-17T09:36:10.801Z,3.6
2018-01-17T09:37:19.590Z,3.61
2018-01-17T09:38:28.388Z,3.64
2018-01-17T09:39:36.945Z,3.76
2018-01-17T09:40:46.541Z,3.84
2018-01-17T09:41:55.947Z,3.82
2018-01-17T09:43:04.981Z,3.89
2018-01-17T09:44:14.040Z,3.9
2018-01-17T09:45:22.828Z,3.96
2018-01-17T09:46:31.891Z,3.97
2018-01-17T09:47:41.208Z,3.97
2018-01-17T09:48:49.997Z,3.9
2018-01-17T09:49:58.788Z,3.92
2018-01-17T09:51:07.845Z,3.78
2018-01-17T09:52:16.366Z,3.84
2018-01-17T09:53:24.948Z,3.86
2018-01-17T09:54:33.479Z,3.86
2018-01-17T09:55:42.274Z,3.82
2018-01-17T09:56:50.795Z,3.85
2018-01-17T09:57:59.314Z,3.79
2018-01-17T09:59:08.637Z,3.84
2018-01-17T10:00:17.161Z,3.81
2018-01-17T10:01:25.954Z,3.78
2018-01-17T10:02:34.742Z,3.82
2018-01-17T10:03:43.533Z,3.74
2018-01-17T10:04:52.329Z,3.82
2018-01-17T10:06:01.649Z,3.84
2018-01-17T10:07:10.443Z,3.9
2018-01-17T10:08:18.972Z,4.02
2018-01-17T10:09:27.758Z,4.08
2018-01-17T10:10:36.586Z,4.07
2018-01-17T10:11:45.345Z,4.08
2018-01-17T10:12:54.140Z,4.07
2018-01-17T10:14:02.670Z,4.07
2018-01-17T10:15:11.728Z,4.1
2018-01-17T10:16:20.253Z,4.03
2018-01-17T10:17:29.038Z,4.02
2018-01-17T10:18:37.564Z,4.07
2018-01-17T10:19:46.087Z,4.14
2018-01-17T10:20:54.609Z,4.18
2018-01-17T10:22:03.666Z,4.11
2018-01-17T10:23:12.723Z,4.12
2018-01-17T10:24:21.516Z,4.14
2018-01-17T10:25:30.043Z,4.2
2018-01-17T10:26:38.835Z,4.21
2018-01-17T10:27:47.622Z,4.14
2018-01-17T10:28:56.414Z,4.17
2018-01-17T10:30:05.244Z,4.15
2018-01-17T10:31:14.407Z,4.3
2018-01-17T10:32:23.640Z,4.35
2018-01-17T10:33:32.429Z,4.38
2018-01-17T10:34:41.745Z,4.36
2018-01-17T10:35:50.533Z,4.42
2018-01-17T10:36:59.327Z,4.33
2018-01-17T10:38:07.990Z,4.33
2018-01-17T10:39:17.052Z,4.38
2018-01-17T10:40:25.583Z,4.33
2018-01-17T10:41:34.386Z,4.4
2018-01-17T10:42:43.177Z,4.38
2018-01-17T10:43:51.697Z,4.38
2018-01-17T10:45:00.245Z,4.39
2018-01-17T10:46:09.056Z,4.38
2018-01-17T10:47:18.170Z,4.32
2018-01-17T10:48:27.224Z,4.33
2018-01-17T10:49:36.545Z,4.3
2018-01-17T10:50:45.684Z,4.4
2018-01-17T10:51:54.853Z,4.39
2018-01-17T10:53:03.374Z,4.48
2018-01-17T10:54:12.167Z,4.54
2018-01-17T10:55:20.960Z,4.6
2018-01-17T10:56:29.850Z,4.76
2018-01-17T10:57:38.584Z,4.76
2018-01-17T10:58:47.371Z,4.79
2018-01-17T10:59:56.169Z,4.78
2018-01-17T11:01:05.273Z,4.75
2018-01-17T11:02:13.817Z,4.6
2018-01-17T11:03:22.351Z,4.69
2018-01-17T11:04:31.414Z,4.64
2018-01-17T11:05:40.472Z,4.6
2018-01-17T11:06:49.258Z,4.58
2018-01-17T11:07:58.047Z,4.58
2018-01-17T11:09:06.976Z,4.54
2018-01-17T11:10:16.032Z,4.51
2018-01-17T11:11:24.822Z,4.53
2018-01-17T11:12:33.612Z,4.6
2018-01-17T11:13:42.883Z,4.69
2018-01-17T11:14:51.671Z,4.66
2018-01-17T11:16:00.459Z,4.71
2018-01-17T11:17:09.516Z,4.79
2018-01-17T11:18:18.046Z,4.83
2018-01-17T11:19:26.833Z,4.69
2018-01-17T11:20:35.359Z,4.76
2018-01-17T11:21:44.161Z,4.72
2018-01-17T11:22:52.952Z,4.78
2018-01-17T11:24:01.751Z,4.76
2018-01-17T11:25:10.286Z,4.78
2018-01-17T11:26:20.034Z,4.83
2018-01-17T11:27:29.038Z,4.84
2018-01-17T11:28:37.588Z,4.9
2018-01-17T11:29:46.653Z,4.78
2018-01-17T11:30:55.712Z,4.78
2018-01-17T11:32:04.762Z,4.74
2018-01-17T11:33:13.554Z,4.78
2018-01-17T11:34:22.080Z,4.79
2018-01-17T11:35:30.730Z,4.79
2018-01-17T11:36:39.530Z,4.76
2018-01-17T11:37:48.318Z,4.72
2018-01-17T11:38:56.840Z,4.74
2018-01-17T11:40:05.629Z,4.76
2018-01-17T11:41:14.682Z,4.66
2018-01-17T11:42:23.209Z,4.71
2018-01-17T11:43:31.733Z,4.72
2018-01-17T11:44:40.253Z,4.76
2018-01-17T11:45:48.798Z,4.72
2018-01-17T11:46:57.598Z,4.61
2018-01-17T11:48:06.654Z,4.65
2018-01-17T11:49:15.645Z,4.66
2018-01-17T11:50:24.700Z,4.64
2018-01-17T11:51:33.222Z,4.61
2018-01-17T11:52:41.762Z,4.66
2018-01-17T11:53:50.826Z,4.75
2018-01-17T11:54:59.617Z,4.75
2018-01-17T11:56:08.408Z,4.74
2018-01-17T11:57:17.192Z,4.74
2018-01-17T11:58:25.720Z,4.75
2018-01-17T11:59:34.510Z,4.75
2018-01-17T12:00:43.581Z,4.76
2018-01-17T12:01:52.645Z,4.88
2018-01-17T12:03:01.435Z,4.75
2018-01-17T12:04:10.231Z,4.94
2018-01-17T12:05:19.284Z,5
2018-01-17T12:06:28.082Z,5.03
2018-01-17T12:07:37.418Z,5.1
2018-01-17T12:08:45.951Z,5.08
2018-01-17T12:09:54.509Z,5.08
2018-01-17T12:11:03.564Z,5.12
2018-01-17T12:12:12.188Z,5.12
2018-01-17T12:13:20.976Z,5.18
2018-01-17T12:14:29.764Z,5.2
2018-01-17T12:15:38.290Z,5.2
2018-01-17T12:16:47.614Z,5.23
2018-01-17T12:17:56.675Z,5.26
2018-01-17T12:19:05.459Z,5.34
2018-01-17T12:20:14.529Z,5.37
2018-01-17T12:21:23.642Z,5.42
2018-01-17T12:22:32.182Z,5.52
2018-01-17T12:23:41.267Z,5.63
2018-01-17T12:24:50.061Z,5.57
2018-01-17T12:25:58.851Z,5.62
2018-01-17T12:27:07.640Z,5.62
2018-01-17T12:28:16.432Z,5.66
2018-01-17T12:29:25.479Z,5.66
2018-01-17T12:30:34.265Z,5.67
2018-01-17T12:31:43.086Z,5.64
2018-01-17T12:32:52.240Z,5.7
2018-01-17T12:34:01.035Z,5.72
2018-01-17T12:35:09.660Z,5.72
2018-01-17T12:36:18.237Z,5.63
2018-01-17T12:37:26.809Z,5.73
2018-01-17T12:38:35.599Z,5.69
2018-01-17T12:39:44.332Z,5.7
2018-01-17T12:40:53.614Z,5.67
2018-01-17T12:42:02.407Z,5.75
2018-01-17T12:43:11.007Z,5.77
2018-01-17T12:44:19.796Z,5.8
2018-01-17T12:45:28.859Z,5.81
2018-01-17T12:46:37.654Z,5.82
2018-01-17T12:47:46.707Z,5.85
2018-01-17T12:48:55.760Z,5.82
2018-01-17T12:50:04.290Z,5.81
2018-01-17T12:51:12.814Z,5.87
2018-01-17T12:52:21.603Z,5.8
2018-01-17T12:53:30.391Z,5.78
2018-01-17T12:54:39.186Z,5.82
2018-01-17T12:55:48.777Z,5.78
2018-01-17T12:56:57.573Z,5.82
2018-01-17T12:58:06.100Z,5.78
2018-01-17T12:59:14.900Z,5.81
2018-01-17T13:00:24.011Z,5.8
2018-01-17T13:01:32.765Z,5.87
2018-01-17T13:02:41.818Z,5.84
2018-01-17T13:03:50.613Z,5.82
2018-01-17T13:04:59.937Z,5.84
2018-01-17T13:06:09.051Z,5.8
2018-01-17T13:07:17.791Z,5.81
2018-01-17T13:08:26.580Z,5.77
2018-01-17T13:09:35.373Z,5.72
2018-01-17T13:10:44.161Z,5.67
2018-01-17T13:11:52.689Z,5.66
2018-01-17T13:13:01.487Z,5.55
2018-01-17T13:14:10.019Z,5.59
2018-01-17T13:15:18.860Z,5.6
2018-01-17T13:16:27.650Z,5.59
2018-01-17T13:17:36.174Z,5.64
2018-01-17T13:18:44.958Z,5.7
2018-01-17T13:19:54.011Z,5.77
2018-01-17T13:21:02.800Z,5.8
2018-01-17T13:22:11.323Z,5.7
2018-01-17T13:23:19.847Z,5.73
2018-01-17T13:24:28.402Z,5.66
2018-01-17T13:25:37.157Z,5.63
2018-01-17T13:26:45.679Z,5.7
2018-01-17T13:27:54.201Z,5.64
2018-01-17T13:29:02.725Z,5.64
2018-01-17T13:30:11.515Z,5.6
2018-01-17T13:31:20.040Z,5.52
2018-01-17T13:32:28.829Z,5.51
2018-01-17T13:33:37.355Z,5.62
2018-01-17T13:34:45.879Z,5.55
2018-01-17T13:35:54.938Z,5.62
2018-01-17T13:37:03.467Z,5.63
2018-01-17T13:38:11.996Z,5.48
2018-01-17T13:39:21.051Z,5.51
2018-01-17T13:40:30.102Z,5.59
2018-01-17T13:41:38.892Z,5.64
2018-01-17T13:42:47.688Z,5.67
2018-01-17T13:43:57.013Z,5.81
2018-01-17T13:45:05.799Z,5.82
2018-01-17T13:46:14.329Z,5.82
2018-01-17T13:47:23.382Z,5.8
2018-01-17T13:48:32.172Z,5.7
2018-01-17T13:49:40.693Z,5.82
2018-01-17T13:50:49.799Z,5.64
2018-01-17T13:51:58.280Z,5.7
2018-01-17T13:53:07.342Z,5.59
2018-01-17T13:54:16.128Z,5.45
2018-01-17T13:55:24.657Z,5.45
2018-01-17T13:56:33.185Z,5.37
2018-01-17T13:57:41.978Z,5.41
2018-01-17T13:58:50.772Z,5.34
2018-01-17T13:59:59.298Z,5.34
2018-01-17T14:01:08.090Z,5.27
2018-01-17T14:02:17.149Z,5.23
2018-01-17T14:03:25.676Z,5.23
2018-01-17T14:04:34.202Z,5.23
2018-01-17T14:05:42.731Z,5.23
2018-01-17T14:06:51.821Z,5.21
2018-01-17T14:08:00.342Z,5.21
2018-01-17T14:09:09.445Z,5.23
2018-01-17T14:10:17.967Z,5.21
2018-01-17T14:11:27.017Z,5.26
2018-01-17T14:12:35.543Z,5.23
2018-01-17T14:13:44.335Z,5.16
2018-01-17T14:14:53.394Z,5.1
2018-01-17T14:16:02.182Z,5.21
2018-01-17T14:17:10.977Z,5.02
2018-01-17T14:18:19.501Z,5.03
2018-01-17T14:19:28.081Z,4.94
2018-01-17T14:20:37.134Z,4.9
2018-01-17T14:21:45.929Z,4.83
2018-01-17T14:22:54.790Z,4.78
2018-01-17T14:24:03.588Z,4.72
2018-01-17T14:25:12.383Z,4.72
2018-01-17T14:26:20.903Z,4.69
2018-01-17T14:27:29.429Z,4.65
2018-01-17T14:28:38.274Z,4.68
2018-01-17T14:29:46.796Z,4.57
2018-01-17T14:30:55.325Z,4.51
2018-01-17T14:32:03.848Z,4.58
2018-01-17T14:33:12.378Z,4.6
2018-01-17T14:34:21.173Z,4.6
2018-01-17T14:35:29.704Z,4.56
2018-01-17T14:36:38.275Z,4.64
2018-01-17T14:37:46.795Z,4.69
2018-01-17T14:38:55.583Z,4.6
2018-01-17T14:40:04.633Z,4.71
2018-01-17T14:41:13.437Z,4.74
2018-01-17T14:42:21.964Z,4.6
2018-01-17T14:43:30.501Z,4.65
2018-01-17T14:44:39.554Z,4.72
2018-01-17T14:45:48.604Z,4.65
2018-01-17T14:46:57.659Z,4.75
2018-01-17T14:48:06.456Z,4.78
2018-01-17T14:49:15.253Z,4.79
2018-01-17T14:50:24.052Z,4.88
2018-01-17T14:51:32.638Z,4.9
2018-01-17T14:52:41.434Z,4.97
2018-01-17T14:53:50.815Z,4.98
2018-01-17T14:54:59.602Z,4.91
2018-01-17T14:56:08.126Z,4.91
2018-01-17T14:57:16.919Z,4.94
2018-01-17T14:58:25.711Z,4.92
2018-01-17T14:59:34.497Z,4.91
2018-01-17T15:00:43.547Z,4.84
2018-01-17T15:01:52.341Z,4.94
2018-01-17T15:03:01.664Z,4.9
2018-01-17T15:04:10.191Z,4.85
2018-01-17T15:05:19.611Z,4.91
2018-01-17T15:06:28.454Z,4.94
2018-01-17T15:07:36.975Z,4.9
2018-01-17T15:08:46.336Z,4.92
2018-01-17T15:09:54.861Z,4.83
2018-01-17T15:11:03.654Z,4.79
2018-01-17T15:12:12.719Z,4.74
2018-01-17T15:13:21.521Z,4.68
2018-01-17T15:14:30.312Z,4.68
2018-01-17T15:15:38.835Z,4.65
2018-01-17T15:16:47.883Z,4.65
2018-01-17T15:17:56.426Z,4.74
2018-01-17T15:19:05.218Z,4.72
2018-01-17T15:20:14.009Z,4.76
2018-01-17T15:21:23.087Z,4.6
2018-01-17T15:22:31.878Z,4.58
2018-01-17T15:23:40.403Z,4.6
2018-01-17T15:24:48.926Z,4.64
2018-01-17T15:25:57.717Z,4.6
2018-01-17T15:27:06.511Z,4.54
2018-01-17T15:28:15.038Z,4.51
2018-01-17T15:29:24.030Z,4.48
2018-01-17T15:30:33.093Z,4.44
2018-01-17T15:31:41.619Z,4.46
2018-01-17T15:32:50.407Z,4.4
2018-01-17T15:33:58.934Z,4.38
2018-01-17T15:35:07.455Z,4.38
2018-01-17T15:36:15.976Z,4.42
2018-01-17T15:37:25.024Z,4.4
2018-01-17T15:38:33.560Z,4.38
2018-01-17T15:39:42.467Z,4.4
2018-01-17T15:40:51.067Z,4.36
2018-01-17T15:42:00.467Z,4.42
2018-01-17T15:43:09.259Z,4.44
2018-01-17T15:44:18.045Z,4.44
2018-01-17T15:45:26.573Z,4.48
2018-01-17T15:46:35.634Z,4.47
2018-01-17T15:47:44.419Z,4.47
2018-01-17T15:48:52.943Z,4.47
2018-01-17T15:50:01.467Z,4.48
2018-01-17T15:51:10.013Z,4.5
2018-01-17T15:52:18.785Z,4.47
2018-01-17T15:53:27.576Z,4.48
2018-01-17T15:54:36.595Z,4.54
2018-01-17T15:55:45.300Z,4.56
2018-01-17T15:56:54.094Z,4.56
2018-01-17T15:58:02.876Z,4.61
2018-01-17T15:59:11.966Z,4.57
2018-01-17T16:00:21.002Z,4.57
2018-01-17T16:01:29.793Z,4.64
2018-01-17T16:02:38.841Z,4.61
2018-01-17T16:03:47.513Z,4.54
2018-01-17T16:04:56.792Z,4.51
2018-01-17T16:06:05.798Z,4.53
2018-01-17T16:07:14.801Z,4.54
2018-01-17T16:08:23.980Z,4.53
2018-01-17T16:09:32.790Z,4.6
2018-01-17T16:10:42.494Z,4.61
2018-01-17T16:11:52.874Z,4.57
2018-01-17T16:13:02.970Z,4.61
2018-01-17T16:14:11.497Z,4.53
2018-01-17T16:15:20.300Z,4.48
2018-01-17T16:16:29.095Z,4.53
2018-01-17T16:17:37.893Z,4.53
2018-01-17T16:18:46.686Z,4.58
2018-01-17T16:19:55.209Z,4.58
2018-01-17T16:21:04.030Z,4.61
2018-01-17T16:22:12.554Z,4.58
2018-01-17T16:23:21.076Z,4.61
2018-01-17T16:24:29.921Z,4.75
2018-01-17T16:25:38.712Z,4.76
2018-01-17T16:26:47.498Z,4.66
2018-01-17T16:27:56.552Z,4.72
2018-01-17T16:29:05.081Z,4.69
2018-01-17T16:30:13.874Z,4.68
2018-01-17T16:31:22.667Z,4.71
2018-01-17T16:32:31.716Z,4.71
2018-01-17T16:33:40.504Z,4.69
2018-01-17T16:34:49.818Z,4.64
2018-01-17T16:35:58.878Z,4.69
2018-01-17T16:37:07.403Z,4.64
2018-01-17T16:38:17.897Z,4.65
2018-01-17T16:39:26.425Z,4.68
2018-01-17T16:40:35.215Z,4.65
2018-01-17T16:41:44.002Z,4.61
2018-01-17T16:42:53.054Z,4.65
2018-01-17T16:44:01.846Z,4.65
2018-01-17T16:45:10.642Z,4.68
2018-01-17T16:46:19.162Z,4.61
2018-01-17T16:47:27.947Z,4.66
2018-01-17T16:48:36.735Z,4.6
2018-01-17T16:49:45.260Z,4.64
2018-01-17T16:50:54.092Z,4.6
2018-01-17T16:52:02.617Z,4.66
2018-01-17T16:53:11.144Z,4.66
2018-01-17T16:54:20.197Z,4.65
2018-01-17T16:55:29.518Z,4.58
2018-01-17T16:56:38.312Z,4.65
2018-01-17T16:57:47.110Z,4.68
2018-01-17T16:58:56.164Z,4.75
2018-01-17T17:00:04.953Z,4.65
2018-01-17T17:01:13.750Z,4.68
2018-01-17T17:02:22.809Z,4.64
2018-01-17T17:03:31.341Z,4.68
2018-01-17T17:04:39.861Z,4.69
2018-01-17T17:05:48.430Z,4.6
2018-01-17T17:06:56.911Z,4.74
2018-01-17T17:08:05.443Z,4.69
2018-01-17T17:09:14.302Z,4.66
2018-01-17T17:10:23.355Z,4.72
2018-01-17T17:11:32.145Z,4.69
2018-01-17T17:12:40.936Z,4.68
2018-01-17T17:13:49.728Z,4.66
2018-01-17T17:14:58.515Z,4.69
2018-01-17T17:16:07.034Z,4.66
2018-01-17T17:17:15.568Z,4.61
2018-01-17T17:18:24.093Z,4.65
2018-01-17T17:19:32.616Z,4.66
2018-01-17T17:20:41.676Z,4.64
2018-01-17T17:21:50.198Z,4.68
2018-01-17T17:22:58.724Z,4.6
2018-01-17T17:24:07.519Z,4.61
2018-01-17T17:25:16.339Z,4.66
2018-01-17T17:26:25.684Z,4.58
2018-01-17T17:27:34.480Z,4.57
2018-01-17T17:28:43.005Z,4.76
2018-01-17T17:29:51.531Z,4.71
2018-01-17T17:31:00.062Z,4.72
2018-01-17T17:32:09.116Z,4.68
2018-01-17T17:33:17.637Z,4.69
2018-01-17T17:34:26.426Z,4.79
2018-01-17T17:35:35.214Z,4.76
2018-01-17T17:36:44.004Z,4.88
2018-01-17T17:37:52.786Z,4.85
2018-01-17T17:39:01.314Z,4.72
2018-01-17T17:40:10.107Z,4.88
2018-01-17T17:41:19.155Z,4.78
2018-01-17T17:42:27.941Z,4.84
2018-01-17T17:43:36.733Z,4.87
2018-01-17T17:44:45.258Z,4.84
2018-01-17T17:45:55.057Z,4.91
2018-01-17T17:47:03.845Z,4.69
2018-01-17T17:48:12.632Z,4.84
2018-01-17T17:49:21.695Z,4.75
2018-01-17T17:50:30.996Z,4.76
2018-01-17T17:51:39.784Z,4.78
2018-01-17T17:52:48.308Z,4.78
2018-01-17T17:53:56.840Z,4.68
2018-01-17T17:55:05.890Z,4.65
2018-01-17T17:56:14.563Z,4.65
2018-01-17T17:57:23.083Z,4.64
2018-01-17T17:58:31.872Z,4.72
2018-01-17T17:59:40.921Z,4.66
2018-01-17T18:00:49.463Z,4.65
2018-01-17T18:01:58.269Z,4.69
2018-01-17T18:03:07.325Z,4.56
2018-01-17T18:04:16.123Z,4.53
2018-01-17T18:05:24.913Z,4.58
2018-01-17T18:06:33.703Z,4.53
2018-01-17T18:07:42.226Z,4.61
2018-01-17T18:08:51.280Z,4.57
2018-01-17T18:10:00.072Z,4.5
2018-01-17T18:11:09.132Z,4.5
2018-01-17T18:12:18.192Z,4.48
2018-01-17T18:13:26.720Z,4.53
2018-01-17T18:14:35.778Z,4.5
2018-01-17T18:15:44.829Z,4.47
2018-01-17T18:16:53.617Z,4.47
2018-01-17T18:18:02.276Z,4.42
2018-01-17T18:19:11.062Z,4.38
2018-01-17T18:20:19.851Z,4.39
2018-01-17T18:21:28.914Z,4.38
2018-01-17T18:22:37.970Z,4.36
2018-01-17T18:23:47.023Z,4.36
2018-01-17T18:24:56.354Z,4.38
2018-01-17T18:26:05.417Z,4.36
2018-01-17T18:27:14.473Z,4.33
2018-01-17T18:28:23.526Z,4.36
2018-01-17T18:29:32.314Z,4.42
2018-01-17T18:30:41.460Z,4.39
2018-01-17T18:31:50.246Z,4.36
2018-01-17T18:32:59.032Z,4.38
2018-01-17T18:34:08.084Z,4.35
2018-01-17T18:35:17.139Z,4.39
2018-01-17T18:36:25.924Z,4.36
2018-01-17T18:37:34.736Z,4.4
2018-01-17T18:38:43.789Z,4.4
2018-01-17T18:39:53.110Z,4.35
2018-01-17T18:41:01.913Z,4.39
2018-01-17T18:42:10.440Z,4.33
2018-01-17T18:43:19.225Z,4.36
2018-01-17T18:44:28.014Z,4.38
2018-01-17T18:45:36.804Z,4.4
2018-01-17T18:46:45.594Z,4.44
2018-01-17T18:47:54.124Z,4.38
2018-01-17T18:49:03.448Z,4.38
2018-01-17T18:50:12.499Z,4.4
2018-01-17T18:51:21.553Z,4.4
2018-01-17T18:52:30.346Z,4.38
2018-01-17T18:53:39.138Z,4.4
2018-01-17T18:54:47.929Z,4.36
2018-01-17T18:55:56.531Z,4.4
2018-01-17T18:57:05.101Z,4.36
2018-01-17T18:58:13.621Z,4.33
2018-01-17T18:59:22.408Z,4.39
2018-01-17T19:00:30.930Z,4.35
2018-01-17T19:01:39.726Z,4.36
2018-01-17T19:02:48.514Z,4.3
2018-01-17T19:03:57.311Z,4.35
2018-01-17T19:05:06.093Z,4.38
2018-01-17T19:06:14.892Z,4.32
2018-01-17T19:07:23.944Z,4.3
2018-01-17T19:08:32.467Z,4.33
2018-01-17T19:09:41.253Z,4.26
2018-01-17T19:10:50.044Z,4.3
2018-01-17T19:11:59.102Z,4.3
2018-01-17T19:13:08.157Z,4.29
2018-01-17T19:14:16.944Z,4.4
2018-01-17T19:15:25.734Z,4.42
2018-01-17T19:16:34.256Z,4.33
2018-01-17T19:17:42.789Z,4.36
2018-01-17T19:18:51.857Z,4.38
2018-01-17T19:20:00.641Z,4.36
2018-01-17T19:21:09.164Z,4.42
2018-01-17T19:22:17.688Z,4.44
2018-01-17T19:23:26.474Z,4.44
2018-01-17T19:24:35.306Z,4.44
2018-01-17T19:25:43.836Z,4.46
2018-01-17T19:26:52.362Z,4.47
2018-01-17T19:28:01.158Z,4.48
2018-01-17T19:29:09.955Z,4.51
2018-01-17T19:30:18.748Z,4.48
2018-01-17T19:31:27.801Z,4.56
2018-01-17T19:32:36.857Z,4.57
2018-01-17T19:33:45.652Z,4.6
2018-01-17T19:34:54.176Z,4.65
2018-01-17T19:36:03.226Z,4.72
2018-01-17T19:37:12.276Z,4.66
2018-01-17T19:38:20.802Z,4.65
2018-01-17T19:39:29.589Z,4.68
2018-01-17T19:40:38.385Z,4.72
2018-01-17T19:41:47.181Z,4.66
2018-01-17T19:42:55.971Z,4.76
2018-01-17T19:44:04.685Z,4.66
2018-01-17T19:45:13.474Z,4.75
2018-01-17T19:46:22.567Z,4.76
2018-01-17T19:47:31.049Z,4.66
2018-01-17T19:48:40.138Z,4.69
2018-01-17T19:49:48.661Z,4.74
2018-01-17T19:50:57.449Z,4.71
2018-01-17T19:52:06.497Z,4.6
2018-01-17T19:53:15.282Z,4.76
2018-01-17T19:54:24.067Z,4.68
2018-01-17T19:55:32.589Z,4.69
2018-01-17T19:56:41.643Z,4.68
2018-01-17T19:57:50.699Z,4.65
2018-01-17T19:58:59.222Z,4.71
2018-01-17T20:00:08.023Z,4.68
2018-01-17T20:01:16.816Z,4.68
2018-01-17T20:02:25.606Z,4.64
2018-01-17T20:03:34.133Z,4.64
2018-01-17T20:04:42.935Z,4.57
2018-01-17T20:05:51.461Z,4.58
2018-01-17T20:06:59.982Z,4.6
2018-01-17T20:08:08.508Z,4.5
2018-01-17T20:09:17.584Z,4.51
2018-01-17T20:10:28.096Z,4.46
2018-01-17T20:11:36.884Z,4.44
2018-01-17T20:12:45.405Z,4.44
2018-01-17T20:13:54.190Z,4.4
2018-01-17T20:15:03.240Z,4.44
2018-01-17T20:16:12.294Z,4.36
2018-01-17T20:17:21.079Z,4.3
2018-01-17T20:18:29.866Z,4.33
2018-01-17T20:19:38.703Z,4.29
2018-01-17T20:20:47.755Z,4.28
2018-01-17T20:21:56.548Z,4.2
2018-01-17T20:23:05.337Z,4.15
2018-01-17T20:24:13.862Z,4.21
2018-01-17T20:25:22.659Z,4.2
2018-01-17T20:26:31.449Z,4.21
2018-01-17T20:27:40.830Z,4.12
2018-01-17T20:28:49.350Z,4.18
2018-01-17T20:29:57.872Z,4.17
2018-01-17T20:31:06.949Z,4.1
2018-01-17T20:32:15.736Z,4.17
2018-01-17T20:33:24.263Z,4.1
2018-01-17T20:34:33.583Z,4.14
2018-01-17T20:35:42.363Z,4.12
2018-01-17T20:36:51.150Z,4.15
2018-01-17T20:38:00.467Z,4.15
2018-01-17T20:39:09.793Z,4.17
2018-01-17T20:40:18.846Z,4.14
2018-01-17T20:41:27.370Z,4.07
2018-01-17T20:42:36.159Z,4.1
2018-01-17T20:43:44.678Z,4.11
2018-01-17T20:44:53.471Z,4.08
2018-01-17T20:46:01.993Z,4.17
2018-01-17T20:47:10.515Z,4.15
2018-01-17T20:48:19.040Z,4.03
2018-01-17T20:49:28.363Z,4.02
2018-01-17T20:50:37.146Z,4.02
2018-01-17T20:51:46.458Z,4.07
2018-01-17T20:52:55.511Z,4.03
2018-01-17T20:54:04.566Z,4.1
2018-01-17T20:55:13.127Z,3.96
2018-01-17T20:56:22.450Z,4.1
2018-01-17T20:57:31.766Z,4.04
2018-01-17T20:58:40.287Z,4.07
2018-01-17T20:59:48.815Z,3.99
2018-01-17T21:00:57.336Z,4.11
2018-01-17T21:02:06.398Z,4.08
2018-01-17T21:03:15.186Z,4.07
2018-01-17T21:04:24.244Z,4.07
2018-01-17T21:05:33.304Z,4.04
2018-01-17T21:06:41.826Z,4.08
2018-01-17T21:07:50.661Z,4.04
2018-01-17T21:08:59.454Z,4.03
2018-01-17T21:10:08.244Z,4.03
2018-01-17T21:11:17.032Z,3.93
2018-01-17T21:12:26.087Z,4.14
2018-01-17T21:13:34.876Z,4.15
2018-01-17T21:14:43.661Z,4.08
2018-01-17T21:15:52.451Z,4.11
2018-01-17T21:17:00.975Z,4.17
2018-01-17T21:18:09.503Z,4.08
2018-01-17T21:19:18.290Z,4.08
2018-01-17T21:20:26.817Z,4.1
2018-01-17T21:21:35.351Z,4.14
2018-01-17T21:22:43.880Z,4.15
2018-01-17T21:23:52.404Z,4.1
2018-01-17T21:25:01.460Z,4.11
2018-01-17T21:26:10.286Z,3.97
2018-01-17T21:27:19.333Z,4.15
2018-01-17T21:28:27.858Z,4.11
2018-01-17T21:29:36.383Z,4
2018-01-17T21:30:44.907Z,4.14
2018-01-17T21:31:53.693Z,4.04
2018-01-17T21:33:02.483Z,4.04
2018-01-17T21:34:11.536Z,4.04
2018-01-17T21:35:20.596Z,4.12
2018-01-17T21:36:29.386Z,3.99
2018-01-17T21:37:38.176Z,4
2018-01-17T21:38:46.965Z,4.1
2018-01-17T21:39:55.488Z,4.03
2018-01-17T21:41:04.563Z,3.94
2018-01-17T21:42:13.349Z,4.03
2018-01-17T21:43:22.383Z,4.03
2018-01-17T21:44:30.920Z,4.02
2018-01-17T21:45:39.528Z,4.04
2018-01-17T21:46:48.458Z,4.04
2018-01-17T21:47:56.979Z,3.96
2018-01-17T21:49:06.338Z,4.1
2018-01-17T21:50:15.946Z,4.04
2018-01-17T21:51:24.834Z,4.14
2018-01-17T21:52:33.360Z,4.1
2018-01-17T21:53:42.320Z,4.04
2018-01-17T21:54:51.428Z,3.93
2018-01-17T21:56:00.071Z,4.18
2018-01-17T21:57:08.652Z,4.03
2018-01-17T21:58:17.452Z,4.11
2018-01-17T21:59:26.148Z,4.02
2018-01-17T22:00:34.980Z,3.93
2018-01-17T22:01:43.735Z,4.08
2018-01-17T22:02:52.300Z,4.21
2018-01-17T22:04:01.458Z,4.07
2018-01-17T22:05:10.266Z,4.18
2018-01-17T22:06:19.082Z,4.1
2018-01-17T22:07:27.608Z,4.14
2018-01-17T22:08:36.131Z,4.11
2018-01-17T22:09:45.244Z,4.2
2018-01-17T22:10:53.777Z,4.12
2018-01-17T22:12:03.264Z,4.14
2018-01-17T22:13:12.056Z,4.22
2018-01-17T22:14:20.624Z,4.3
2018-01-17T22:15:29.440Z,4.32
2018-01-17T22:16:38.515Z,4.3
2018-01-17T22:17:47.304Z,4.46
2018-01-17T22:18:55.899Z,4.39
2018-01-17T22:20:04.616Z,4.42
2018-01-17T22:21:13.404Z,4.42
2018-01-17T22:22:22.092Z,4.4
2018-01-17T22:23:31.120Z,4.4
2018-01-17T22:24:39.926Z,4.36
2018-01-17T22:25:48.447Z,4.39
2018-01-17T22:26:57.508Z,4.33
2018-01-17T22:28:06.561Z,4.38
2018-01-17T22:29:15.350Z,4.35
2018-01-17T22:30:24.410Z,4.4
2018-01-17T22:31:32.989Z,4.33
2018-01-17T22:32:41.777Z,4.39
2018-01-17T22:33:50.568Z,4.32
2018-01-17T22:34:59.620Z,4.29
2018-01-17T22:36:08.407Z,4.36
2018-01-17T22:37:16.934Z,4.32
2018-01-17T22:38:25.459Z,4.35
2018-01-17T22:39:33.983Z,4.32
2018-01-17T22:40:42.503Z,4.28
2018-01-17T22:41:51.030Z,4.35
2018-01-17T22:43:00.092Z,4.28
2018-01-17T22:44:08.877Z,4.33
2018-01-17T22:45:17.674Z,4.3
2018-01-17T22:46:26.988Z,4.33
2018-01-17T22:47:36.047Z,4.32
2018-01-17T22:48:45.099Z,4.21
2018-01-17T22:49:54.151Z,4.28
2018-01-17T22:51:02.672Z,4.3
2018-01-17T22:52:11.200Z,4.29
2018-01-17T22:53:20.255Z,4.3
2018-01-17T22:54:29.040Z,4.2
2018-01-17T22:55:37.838Z,4.2
2018-01-17T22:56:46.668Z,4.29
2018-01-17T22:57:55.423Z,4.29
2018-01-17T22:59:03.952Z,4.33
2018-01-17T23:00:12.738Z,4.32
2018-01-17T23:01:21.798Z,4.3
2018-01-17T23:02:30.320Z,4.21
2018-01-17T23:03:39.110Z,4.21
2018-01-17T23:04:47.632Z,4.3
2018-01-17T23:05:56.684Z,4.32
2018-01-17T23:07:05.743Z,4.29
2018-01-17T23:08:14.802Z,4.28
2018-01-17T23:09:23.590Z,4.3
2018-01-17T23:10:32.649Z,4.22
2018-01-17T23:11:41.440Z,4.29
2018-01-17T23:12:50.227Z,4.32
2018-01-17T23:13:59.281Z,4.36
2018-01-17T23:15:08.083Z,4.33
2018-01-17T23:16:16.869Z,4.29
2018-01-17T23:17:25.658Z,4.36
2018-01-17T23:18:34.448Z,4.33
2018-01-17T23:19:43.236Z,4.35
2018-01-17T23:20:51.758Z,4.39
2018-01-17T23:22:01.077Z,4.35
2018-01-17T23:23:09.880Z,4.38
2018-01-17T23:24:18.670Z,4.4
2018-01-17T23:25:27.187Z,4.38
2018-01-17T23:26:35.973Z,4.36